KMOB/MOB METAR and TAF weather

Enter ICAO airport designator
Station Type Date Time Source
KMOB METAR 2021/09/24 05:56 UTC NOAA

KMOB 240556Z AUTO 35004KT 10SM CLR 14/12 A3005 RMK AO2 SLP174 T01440122 10189 20139 402500128 58001


Station Type Date Time Source
KMOB Decoded METAR 2021/09/24 05:56 UTC NOAA

MOBILE REGIONAL AIRPORT, AL, United States (KMOB) 30-41N 88-14W 67M
Sep 24, 2021 - 01:56 AM EDT / 2021.09.24 0556 UTC
Wind: from the N (350 degrees) at 5 MPH (4 KT):0
Visibility: 10 mile(s):0
Sky conditions: clear
Temperature: 57.9 F (14.4 C)
Dew Point: 54.0 F (12.2 C)
Relative Humidity: 86%
Pressure (altimeter): 30.05 in. Hg (1017 hPa)
Pressure tendency: 0.00 inches (0.1 hPa) lower than three hours ago
ob: KMOB 240556Z AUTO 35004KT 10SM CLR 14/12 A3005 RMK AO2 SLP174 T01440122 10189 20139 402500128 58001
cycle: 6

Station Type Date Time Source
KMOB TAF 2021/09/24 06:22 UTC NOAA

TAF KMOB 240520Z 2406/2506 36006KT P6SM SKC
FM241500 05009KT P6SM SKC
FM250100 36005KT P6SM SKC

Example: see airport list